sensor_id;sensor_type;location;lat;lon;timestamp;temperature;humidity
4755;DHT22;2391;47.212;7.542;2023-04-16T00:00:52;11.00;99.90
4755;DHT22;2391;47.212;7.542;2023-04-16T00:03:18;11.00;99.90
4755;DHT22;2391;47.212;7.542;2023-04-16T00:05:43;11.00;99.90
4755;DHT22;2391;47.212;7.542;2023-04-16T00:08:09;11.00;99.90
4755;DHT22;2391;47.212;7.542;2023-04-16T00:10:35;11.00;99.90
4755;DHT22;2391;47.212;7.542;2023-04-16T00:13:00;11.00;99.90
4755;DHT22;2391;47.212;7.542;2023-04-16T00:15:26;11.00;99.90
4755;DHT22;2391;47.212;7.542;2023-04-16T00:17:52;10.90;99.90
4755;DHT22;2391;47.212;7.542;2023-04-16T00:20:18;10.90;99.90
4755;DHT22;2391;47.212;7.542;2023-04-16T00:22:45;11.00;99.90
4755;DHT22;2391;47.212;7.542;2023-04-16T00:25:12;11.00;99.90
4755;DHT22;2391;47.212;7.542;2023-04-16T00:27:38;11.10;99.90
4755;DHT22;2391;47.212;7.542;2023-04-16T00:30:05;11.10;99.90
4755;DHT22;2391;47.212;7.542;2023-04-16T00:32:31;11.20;99.90
4755;DHT22;2391;47.212;7.542;2023-04-16T00:34:56;11.30;99.90
4755;DHT22;2391;47.212;7.542;2023-04-16T00:37:22;11.30;99.90
4755;DHT22;2391;47.212;7.542;2023-04-16T00:39:49;11.30;99.90
4755;DHT22;2391;47.212;7.542;2023-04-16T00:42:14;11.30;99.90
4755;DHT22;2391;47.212;7.542;2023-04-16T00:44:40;11.30;99.90
4755;DHT22;2391;47.212;7.542;2023-04-16T00:47:06;11.20;99.90
4755;DHT22;2391;47.212;7.542;2023-04-16T00:49:32;11.20;99.90
4755;DHT22;2391;47.212;7.542;2023-04-16T00:51:59;11.20;99.90
4755;DHT22;2391;47.212;7.542;2023-04-16T00:54:27;11.20;99.90
4755;DHT22;2391;47.212;7.542;2023-04-16T00:56:53;11.00;99.90
4755;DHT22;2391;47.212;7.542;2023-04-16T00:59:18;10.80;99.90
4755;DHT22;2391;47.212;7.542;2023-04-16T01:01:44;10.70;99.90
4755;DHT22;2391;47.212;7.542;2023-04-16T01:04:10;10.70;99.90
4755;DHT22;2391;47.212;7.542;2023-04-16T01:06:36;10.70;99.90
4755;DHT22;2391;47.212;7.542;2023-04-16T01:09:02;10.80;99.90
4755;DHT22;2391;47.212;7.542;2023-04-16T01:11:27;10.90;99.90
4755;DHT22;2391;47.212;7.542;2023-04-16T01:13:53;10.90;99.90
4755;DHT22;2391;47.212;7.542;2023-04-16T01:16:22;11.00;99.90
4755;DHT22;2391;47.212;7.542;2023-04-16T01:18:48;11.10;99.90
4755;DHT22;2391;47.212;7.542;2023-04-16T01:21:13;11.10;99.90
4755;DHT22;2391;47.212;7.542;2023-04-16T01:23:39;11.20;99.90
4755;DHT22;2391;47.212;7.542;2023-04-16T01:26:05;11.20;99.90
4755;DHT22;2391;47.212;7.542;2023-04-16T01:28:31;11.30;99.90
4755;DHT22;2391;47.212;7.542;2023-04-16T01:30:56;11.30;99.90
4755;DHT22;2391;47.212;7.542;2023-04-16T01:33:22;11.30;99.90
4755;DHT22;2391;47.212;7.542;2023-04-16T01:35:48;11.40;99.90
4755;DHT22;2391;47.212;7.542;2023-04-16T01:38:13;11.40;99.90
4755;DHT22;2391;47.212;7.542;2023-04-16T01:40:39;11.40;99.90
4755;DHT22;2391;47.212;7.542;2023-04-16T01:43:05;11.40;99.90
4755;DHT22;2391;47.212;7.542;2023-04-16T01:45:34;11.40;99.90
4755;DHT22;2391;47.212;7.542;2023-04-16T01:48:00;11.50;99.90
4755;DHT22;2391;47.212;7.542;2023-04-16T01:50:26;11.50;99.90
4755;DHT22;2391;47.212;7.542;2023-04-16T01:52:52;11.50;99.90
4755;DHT22;2391;47.212;7.542;2023-04-16T01:55:18;11.50;99.90
4755;DHT22;2391;47.212;7.542;2023-04-16T01:57:44;11.50;99.90
4755;DHT22;2391;47.212;7.542;2023-04-16T02:00:10;11.50;99.90
4755;DHT22;2391;47.212;7.542;2023-04-16T02:02:36;11.50;99.90
4755;DHT22;2391;47.212;7.542;2023-04-16T02:05:02;11.50;99.90
4755;DHT22;2391;47.212;7.542;2023-04-16T02:07:27;11.50;99.90
4755;DHT22;2391;47.212;7.542;2023-04-16T02:09:53;11.50;99.90
4755;DHT22;2391;47.212;7.542;2023-04-16T02:12:19;11.60;99.90
4755;DHT22;2391;47.212;7.542;2023-04-16T02:14:45;11.50;99.90
4755;DHT22;2391;47.212;7.542;2023-04-16T02:17:10;11.50;99.90
4755;DHT22;2391;47.212;7.542;2023-04-16T02:19:36;11.60;99.90
4755;DHT22;2391;47.212;7.542;2023-04-16T02:22:02;11.60;99.90
4755;DHT22;2391;47.212;7.542;2023-04-16T02:24:28;11.60;99.90
4755;DHT22;2391;47.212;7.542;2023-04-16T02:26:54;11.60;99.90
4755;DHT22;2391;47.212;7.542;2023-04-16T02:29:21;11.60;99.90
4755;DHT22;2391;47.212;7.542;2023-04-16T02:31:47;11.60;99.90
4755;DHT22;2391;47.212;7.542;2023-04-16T02:34:13;11.60;99.90
4755;DHT22;2391;47.212;7.542;2023-04-16T02:36:39;11.60;99.90
4755;DHT22;2391;47.212;7.542;2023-04-16T02:39:05;11.60;99.90
4755;DHT22;2391;47.212;7.542;2023-04-16T02:41:31;11.60;99.90
4755;DHT22;2391;47.212;7.542;2023-04-16T02:43:57;11.60;99.90
4755;DHT22;2391;47.212;7.542;2023-04-16T02:46:23;11.60;99.90
4755;DHT22;2391;47.212;7.542;2023-04-16T02:48:48;11.60;99.90
4755;DHT22;2391;47.212;7.542;2023-04-16T02:51:14;11.60;99.90
4755;DHT22;2391;47.212;7.542;2023-04-16T02:53:40;11.60;99.90
4755;DHT22;2391;47.212;7.542;2023-04-16T02:56:08;11.60;99.90
4755;DHT22;2391;47.212;7.542;2023-04-16T02:58:33;11.60;99.90
4755;DHT22;2391;47.212;7.542;2023-04-16T03:00:59;11.60;99.90
4755;DHT22;2391;47.212;7.542;2023-04-16T03:03:25;11.60;99.90
4755;DHT22;2391;47.212;7.542;2023-04-16T03:05:50;11.60;99.90
4755;DHT22;2391;47.212;7.542;2023-04-16T03:08:16;11.60;99.90
4755;DHT22;2391;47.212;7.542;2023-04-16T03:10:42;11.60;99.90
4755;DHT22;2391;47.212;7.542;2023-04-16T03:13:08;11.50;99.90
4755;DHT22;2391;47.212;7.542;2023-04-16T03:15:33;11.50;99.90
4755;DHT22;2391;47.212;7.542;2023-04-16T03:17:59;11.50;99.90
4755;DHT22;2391;47.212;7.542;2023-04-16T03:20:25;11.50;99.90
4755;DHT22;2391;47.212;7.542;2023-04-16T03:22:51;11.50;99.90
4755;DHT22;2391;47.212;7.542;2023-04-16T03:25:17;11.40;99.90
4755;DHT22;2391;47.212;7.542;2023-04-16T03:27:43;11.50;99.90
4755;DHT22;2391;47.212;7.542;2023-04-16T03:30:10;11.50;99.90
4755;DHT22;2391;47.212;7.542;2023-04-16T03:32:37;11.50;99.90
4755;DHT22;2391;47.212;7.542;2023-04-16T03:35:04;11.50;99.90
4755;DHT22;2391;47.212;7.542;2023-04-16T03:37:30;11.40;99.90
4755;DHT22;2391;47.212;7.542;2023-04-16T03:39:56;11.40;99.90
4755;DHT22;2391;47.212;7.542;2023-04-16T03:42:22;11.30;99.90
4755;DHT22;2391;47.212;7.542;2023-04-16T03:44:47;11.20;99.90
4755;DHT22;2391;47.212;7.542;2023-04-16T03:47:33;11.30;99.90
4755;DHT22;2391;47.212;7.542;2023-04-16T03:49:59;11.30;99.90
4755;DHT22;2391;47.212;7.542;2023-04-16T03:52:24;11.30;99.90
4755;DHT22;2391;47.212;7.542;2023-04-16T03:54:51;11.30;99.90
4755;DHT22;2391;47.212;7.542;2023-04-16T03:57:17;11.30;99.90
4755;DHT22;2391;47.212;7.542;2023-04-16T03:59:42;11.40;99.90
4755;DHT22;2391;47.212;7.542;2023-04-16T04:02:08;11.40;99.90
4755;DHT22;2391;47.212;7.542;2023-04-16T04:04:34;11.40;99.90
4755;DHT22;2391;47.212;7.542;2023-04-16T04:07:00;11.40;99.90
4755;DHT22;2391;47.212;7.542;2023-04-16T04:09:25;11.40;99.90
4755;DHT22;2391;47.212;7.542;2023-04-16T04:11:51;11.50;99.90
4755;DHT22;2391;47.212;7.542;2023-04-16T04:14:17;11.50;99.90
4755;DHT22;2391;47.212;7.542;2023-04-16T04:16:42;11.50;99.90
4755;DHT22;2391;47.212;7.542;2023-04-16T04:19:08;11.50;99.90
4755;DHT22;2391;47.212;7.542;2023-04-16T04:21:34;11.60;99.90
4755;DHT22;2391;47.212;7.542;2023-04-16T04:23:59;11.60;99.90
4755;DHT22;2391;47.212;7.542;2023-04-16T04:26:25;11.60;99.90
4755;DHT22;2391;47.212;7.542;2023-04-16T04:28:51;11.60;99.90
4755;DHT22;2391;47.212;7.542;2023-04-16T04:31:16;11.60;99.90
4755;DHT22;2391;47.212;7.542;2023-04-16T04:33:42;11.60;99.90
4755;DHT22;2391;47.212;7.542;2023-04-16T04:36:08;11.60;99.90
4755;DHT22;2391;47.212;7.542;2023-04-16T04:38:34;11.60;99.90
4755;DHT22;2391;47.212;7.542;2023-04-16T04:40:59;11.60;99.90
4755;DHT22;2391;47.212;7.542;2023-04-16T04:43:25;11.60;99.90
4755;DHT22;2391;47.212;7.542;2023-04-16T04:45:51;11.70;99.90
4755;DHT22;2391;47.212;7.542;2023-04-16T04:48:17;11.70;99.90
4755;DHT22;2391;47.212;7.542;2023-04-16T04:50:44;11.70;99.90
4755;DHT22;2391;47.212;7.542;2023-04-16T04:53:10;11.70;99.90
4755;DHT22;2391;47.212;7.542;2023-04-16T04:55:37;11.70;99.90
4755;DHT22;2391;47.212;7.542;2023-04-16T04:58:04;11.70;99.90
4755;DHT22;2391;47.212;7.542;2023-04-16T05:00:30;11.70;99.90
4755;DHT22;2391;47.212;7.542;2023-04-16T05:02:56;11.70;99.90
4755;DHT22;2391;47.212;7.542;2023-04-16T05:05:22;11.70;99.90
4755;DHT22;2391;47.212;7.542;2023-04-16T05:07:48;11.70;99.90
4755;DHT22;2391;47.212;7.542;2023-04-16T05:10:13;11.70;99.90
4755;DHT22;2391;47.212;7.542;2023-04-16T05:12:47;11.70;99.90
4755;DHT22;2391;47.212;7.542;2023-04-16T05:15:30;11.70;99.90
4755;DHT22;2391;47.212;7.542;2023-04-16T05:18:05;11.70;99.90
4755;DHT22;2391;47.212;7.542;2023-04-16T05:20:50;11.80;99.90
4755;DHT22;2391;47.212;7.542;2023-04-16T05:23:26;11.90;99.80
4755;DHT22;2391;47.212;7.542;2023-04-16T05:26:04;12.10;99.70
4755;DHT22;2391;47.212;7.542;2023-04-16T05:28:37;12.20;99.70
4755;DHT22;2391;47.212;7.542;2023-04-16T05:31:13;12.40;99.60
4755;DHT22;2391;47.212;7.542;2023-04-16T05:33:52;12.40;99.40
4755;DHT22;2391;47.212;7.542;2023-04-16T05:36:23;12.50;99.30
4755;DHT22;2391;47.212;7.542;2023-04-16T05:39:25;12.60;99.30
4755;DHT22;2391;47.212;7.542;2023-04-16T05:42:01;12.70;99.20
4755;DHT22;2391;47.212;7.542;2023-04-16T05:44:44;12.70;99.10
4755;DHT22;2391;47.212;7.542;2023-04-16T05:47:25;12.70;98.90
4755;DHT22;2391;47.212;7.542;2023-04-16T05:50:07;12.80;98.90
4755;DHT22;2391;47.212;7.542;2023-04-16T05:52:45;12.80;98.80
4755;DHT22;2391;47.212;7.542;2023-04-16T05:55:29;12.80;98.70
4755;DHT22;2391;47.212;7.542;2023-04-16T05:58:01;12.80;98.70
4755;DHT22;2391;47.212;7.542;2023-04-16T06:00:43;12.80;98.70
4755;DHT22;2391;47.212;7.542;2023-04-16T06:03:18;12.80;98.70
4755;DHT22;2391;47.212;7.542;2023-04-16T06:06:03;12.80;99.10
4755;DHT22;2391;47.212;7.542;2023-04-16T06:08:43;12.70;98.70
4755;DHT22;2391;47.212;7.542;2023-04-16T06:11:16;12.60;98.90
4755;DHT22;2391;47.212;7.542;2023-04-16T06:13:57;12.50;98.90
4755;DHT22;2391;47.212;7.542;2023-04-16T06:16:27;12.40;99.10
4755;DHT22;2391;47.212;7.542;2023-04-16T06:19:04;12.50;99.20
4755;DHT22;2391;47.212;7.542;2023-04-16T06:21:37;12.40;99.20
4755;DHT22;2391;47.212;7.542;2023-04-16T06:24:09;12.30;99.30
4755;DHT22;2391;47.212;7.542;2023-04-16T06:27:01;12.30;99.40
4755;DHT22;2391;47.212;7.542;2023-04-16T06:29:38;12.30;99.50
4755;DHT22;2391;47.212;7.542;2023-04-16T06:32:16;12.30;99.50
4755;DHT22;2391;47.212;7.542;2023-04-16T06:34:48;12.40;99.50
4755;DHT22;2391;47.212;7.542;2023-04-16T06:37:29;12.50;99.40
4755;DHT22;2391;47.212;7.542;2023-04-16T06:40:03;12.60;99.30
4755;DHT22;2391;47.212;7.542;2023-04-16T06:42:45;12.60;99.40
4755;DHT22;2391;47.212;7.542;2023-04-16T06:45:25;12.60;99.30
4755;DHT22;2391;47.212;7.542;2023-04-16T06:48:03;12.60;99.30
4755;DHT22;2391;47.212;7.542;2023-04-16T06:50:40;12.70;99.20
4755;DHT22;2391;47.212;7.542;2023-04-16T06:53:12;12.70;99.10
4755;DHT22;2391;47.212;7.542;2023-04-16T06:55:50;12.70;99.10
4755;DHT22;2391;47.212;7.542;2023-04-16T06:58:32;12.60;99.10
4755;DHT22;2391;47.212;7.542;2023-04-16T07:01:08;12.70;99.20
4755;DHT22;2391;47.212;7.542;2023-04-16T07:03:49;12.70;99.10
4755;DHT22;2391;47.212;7.542;2023-04-16T07:09:10;12.70;99.10
4755;DHT22;2391;47.212;7.542;2023-04-16T07:11:43;12.80;99.10
4755;DHT22;2391;47.212;7.542;2023-04-16T07:14:22;12.90;99.00
4755;DHT22;2391;47.212;7.542;2023-04-16T07:17:14;12.90;99.00
4755;DHT22;2391;47.212;7.542;2023-04-16T07:19:59;12.90;98.80
4755;DHT22;2391;47.212;7.542;2023-04-16T07:22:34;12.90;98.80
4755;DHT22;2391;47.212;7.542;2023-04-16T07:25:05;12.90;98.80
4755;DHT22;2391;47.212;7.542;2023-04-16T07:27:45;13.00;98.80
4755;DHT22;2391;47.212;7.542;2023-04-16T07:30:18;13.00;98.70
4755;DHT22;2391;47.212;7.542;2023-04-16T07:32:57;13.00;98.80
4755;DHT22;2391;47.212;7.542;2023-04-16T07:35:43;13.00;98.70
4755;DHT22;2391;47.212;7.542;2023-04-16T07:38:22;13.00;98.70
4755;DHT22;2391;47.212;7.542;2023-04-16T07:40:59;13.00;98.80
4755;DHT22;2391;47.212;7.542;2023-04-16T07:43:47;13.00;98.80
4755;DHT22;2391;47.212;7.542;2023-04-16T07:46:39;13.00;98.90
4755;DHT22;2391;47.212;7.542;2023-04-16T07:49:19;13.10;98.90
4755;DHT22;2391;47.212;7.542;2023-04-16T07:51:53;13.00;98.90
4755;DHT22;2391;47.212;7.542;2023-04-16T07:54:24;13.10;98.90
4755;DHT22;2391;47.212;7.542;2023-04-16T07:56:57;13.00;98.90
4755;DHT22;2391;47.212;7.542;2023-04-16T07:59:34;12.90;98.90
4755;DHT22;2391;47.212;7.542;2023-04-16T08:02:14;12.90;99.00
4755;DHT22;2391;47.212;7.542;2023-04-16T08:04:43;13.00;99.10
4755;DHT22;2391;47.212;7.542;2023-04-16T08:10:24;13.00;99.10
4755;DHT22;2391;47.212;7.542;2023-04-16T08:13:01;13.00;99.10
4755;DHT22;2391;47.212;7.542;2023-04-16T08:15:37;13.00;99.10
4755;DHT22;2391;47.212;7.542;2023-04-16T08:18:16;13.00;99.00
4755;DHT22;2391;47.212;7.542;2023-04-16T08:20:55;13.00;99.10
4755;DHT22;2391;47.212;7.542;2023-04-16T08:23:38;13.00;99.00
4755;DHT22;2391;47.212;7.542;2023-04-16T08:26:11;12.90;99.00
4755;DHT22;2391;47.212;7.542;2023-04-16T08:28:46;12.90;99.10
4755;DHT22;2391;47.212;7.542;2023-04-16T08:31:37;12.90;99.00
4755;DHT22;2391;47.212;7.542;2023-04-16T08:34:10;12.90;99.10
4755;DHT22;2391;47.212;7.542;2023-04-16T08:36:44;13.00;99.10
4755;DHT22;2391;47.212;7.542;2023-04-16T08:39:31;13.00;99.00
4755;DHT22;2391;47.212;7.542;2023-04-16T08:42:31;12.90;99.00
4755;DHT22;2391;47.212;7.542;2023-04-16T08:45:07;13.00;99.00
4755;DHT22;2391;47.212;7.542;2023-04-16T08:47:37;13.00;99.00
4755;DHT22;2391;47.212;7.542;2023-04-16T08:50:16;13.10;99.00
4755;DHT22;2391;47.212;7.542;2023-04-16T08:53:08;13.10;99.00
4755;DHT22;2391;47.212;7.542;2023-04-16T08:55:45;13.10;98.80
4755;DHT22;2391;47.212;7.542;2023-04-16T08:58:17;13.10;99.00
4755;DHT22;2391;47.212;7.542;2023-04-16T09:00:55;13.10;99.00
4755;DHT22;2391;47.212;7.542;2023-04-16T09:03:27;13.10;99.00
4755;DHT22;2391;47.212;7.542;2023-04-16T09:06:03;13.10;99.00
4755;DHT22;2391;47.212;7.542;2023-04-16T09:08:53;13.00;99.10
4755;DHT22;2391;47.212;7.542;2023-04-16T09:11:34;12.90;99.20
4755;DHT22;2391;47.212;7.542;2023-04-16T09:14:08;12.80;99.40
4755;DHT22;2391;47.212;7.542;2023-04-16T09:19:34;12.90;99.60
4755;DHT22;2391;47.212;7.542;2023-04-16T09:22:07;13.00;99.50
4755;DHT22;2391;47.212;7.542;2023-04-16T09:24:47;13.00;99.30
4755;DHT22;2391;47.212;7.542;2023-04-16T09:27:15;13.00;99.20
4755;DHT22;2391;47.212;7.542;2023-04-16T09:29:49;13.00;99.30
4755;DHT22;2391;47.212;7.542;2023-04-16T09:32:33;13.00;99.20
4755;DHT22;2391;47.212;7.542;2023-04-16T09:35:14;13.10;99.10
4755;DHT22;2391;47.212;7.542;2023-04-16T09:38:01;13.10;99.10
4755;DHT22;2391;47.212;7.542;2023-04-16T09:40:33;13.10;99.10
4755;DHT22;2391;47.212;7.542;2023-04-16T09:43:08;13.10;99.10
4755;DHT22;2391;47.212;7.542;2023-04-16T09:46:05;13.10;99.20
4755;DHT22;2391;47.212;7.542;2023-04-16T09:48:53;13.10;99.30
4755;DHT22;2391;47.212;7.542;2023-04-16T09:51:35;13.10;99.20
4755;DHT22;2391;47.212;7.542;2023-04-16T09:57:05;13.20;99.20
4755;DHT22;2391;47.212;7.542;2023-04-16T09:59:45;13.30;99.20
4755;DHT22;2391;47.212;7.542;2023-04-16T10:02:19;13.20;99.20
4755;DHT22;2391;47.212;7.542;2023-04-16T10:04:51;13.30;99.30
4755;DHT22;2391;47.212;7.542;2023-04-16T10:07:35;13.30;99.10
4755;DHT22;2391;47.212;7.542;2023-04-16T10:10:05;13.20;99.20
4755;DHT22;2391;47.212;7.542;2023-04-16T10:15:29;13.40;99.20
4755;DHT22;2391;47.212;7.542;2023-04-16T10:18:01;13.50;99.20
4755;DHT22;2391;47.212;7.542;2023-04-16T10:20:38;13.50;99.20
4755;DHT22;2391;47.212;7.542;2023-04-16T10:23:16;13.50;99.00
4755;DHT22;2391;47.212;7.542;2023-04-16T10:25:54;13.60;99.00
4755;DHT22;2391;47.212;7.542;2023-04-16T10:28:37;13.60;99.00
4755;DHT22;2391;47.212;7.542;2023-04-16T10:34:04;13.40;98.80
4755;DHT22;2391;47.212;7.542;2023-04-16T10:37:04;13.30;98.90
4755;DHT22;2391;47.212;7.542;2023-04-16T10:39:35;13.30;98.90
4755;DHT22;2391;47.212;7.542;2023-04-16T10:42:37;13.30;98.90
4755;DHT22;2391;47.212;7.542;2023-04-16T10:45:12;13.30;98.90
4755;DHT22;2391;47.212;7.542;2023-04-16T10:47:56;13.40;98.90
4755;DHT22;2391;47.212;7.542;2023-04-16T10:53:28;13.50;98.70
4755;DHT22;2391;47.212;7.542;2023-04-16T10:56:25;13.50;98.70
4755;DHT22;2391;47.212;7.542;2023-04-16T10:58:58;13.60;98.70
4755;DHT22;2391;47.212;7.542;2023-04-16T11:01:47;13.60;98.80
4755;DHT22;2391;47.212;7.542;2023-04-16T11:04:37;13.50;98.90
4755;DHT22;2391;47.212;7.542;2023-04-16T11:07:15;13.50;98.80
4755;DHT22;2391;47.212;7.542;2023-04-16T11:12:47;13.40;98.80
4755;DHT22;2391;47.212;7.542;2023-04-16T11:15:18;13.30;98.60
4755;DHT22;2391;47.212;7.542;2023-04-16T11:18:03;13.30;99.00
4755;DHT22;2391;47.212;7.542;2023-04-16T11:20:43;13.20;99.30
4755;DHT22;2391;47.212;7.542;2023-04-16T11:23:26;13.10;99.60
4755;DHT22;2391;47.212;7.542;2023-04-16T11:26:01;13.00;99.80
4755;DHT22;2391;47.212;7.542;2023-04-16T11:28:38;13.10;99.90
4755;DHT22;2391;47.212;7.542;2023-04-16T11:31:13;13.20;99.80
4755;DHT22;2391;47.212;7.542;2023-04-16T11:33:58;13.40;99.70
4755;DHT22;2391;47.212;7.542;2023-04-16T11:37:03;13.50;99.70
4755;DHT22;2391;47.212;7.542;2023-04-16T11:39:12;13.50;99.60
4755;DHT22;2391;47.212;7.542;2023-04-16T11:41:51;13.60;99.60
4755;DHT22;2391;47.212;7.542;2023-04-16T11:44:24;13.60;99.60
4755;DHT22;2391;47.212;7.542;2023-04-16T11:50:20;13.20;99.50
4755;DHT22;2391;47.212;7.542;2023-04-16T11:52:47;13.00;99.60
4755;DHT22;2391;47.212;7.542;2023-04-16T11:55:13;13.00;99.60
4755;DHT22;2391;47.212;7.542;2023-04-16T11:57:40;13.00;99.60
4755;DHT22;2391;47.212;7.542;2023-04-16T12:00:06;12.90;99.70
4755;DHT22;2391;47.212;7.542;2023-04-16T12:02:50;12.90;99.60
4755;DHT22;2391;47.212;7.542;2023-04-16T12:05:35;12.90;99.80
4755;DHT22;2391;47.212;7.542;2023-04-16T12:08:03;12.80;99.90
4755;DHT22;2391;47.212;7.542;2023-04-16T12:10:33;12.70;99.90
4755;DHT22;2391;47.212;7.542;2023-04-16T12:13:17;12.70;99.80
4755;DHT22;2391;47.212;7.542;2023-04-16T12:18:19;12.60;99.90
4755;DHT22;2391;47.212;7.542;2023-04-16T12:20:47;12.60;99.90
4755;DHT22;2391;47.212;7.542;2023-04-16T12:23:31;12.60;99.90
4755;DHT22;2391;47.212;7.542;2023-04-16T12:25:57;12.60;99.90
4755;DHT22;2391;47.212;7.542;2023-04-16T12:28:32;12.60;99.90
4755;DHT22;2391;47.212;7.542;2023-04-16T12:30:59;12.70;99.90
4755;DHT22;2391;47.212;7.542;2023-04-16T12:33:25;12.70;99.80
4755;DHT22;2391;47.212;7.542;2023-04-16T12:35:51;12.70;99.80
4755;DHT22;2391;47.212;7.542;2023-04-16T12:38:17;12.70;99.70
4755;DHT22;2391;47.212;7.542;2023-04-16T12:40:43;12.70;99.90
4755;DHT22;2391;47.212;7.542;2023-04-16T12:43:09;12.70;99.70
4755;DHT22;2391;47.212;7.542;2023-04-16T12:45:35;12.60;99.70
4755;DHT22;2391;47.212;7.542;2023-04-16T12:48:01;12.40;99.90
4755;DHT22;2391;47.212;7.542;2023-04-16T12:50:27;12.30;99.90
4755;DHT22;2391;47.212;7.542;2023-04-16T12:52:54;12.20;99.90
4755;DHT22;2391;47.212;7.542;2023-04-16T12:55:21;12.20;99.90
4755;DHT22;2391;47.212;7.542;2023-04-16T12:57:46;12.20;99.90
4755;DHT22;2391;47.212;7.542;2023-04-16T13:00:13;12.10;99.90
4755;DHT22;2391;47.212;7.542;2023-04-16T13:02:41;12.10;99.90
4755;DHT22;2391;47.212;7.542;2023-04-16T13:05:07;12.10;99.90
4755;DHT22;2391;47.212;7.542;2023-04-16T13:07:33;12.10;99.90
4755;DHT22;2391;47.212;7.542;2023-04-16T13:10:00;12.10;99.90
4755;DHT22;2391;47.212;7.542;2023-04-16T13:12:26;12.20;99.90
4755;DHT22;2391;47.212;7.542;2023-04-16T13:14:54;12.20;99.90
4755;DHT22;2391;47.212;7.542;2023-04-16T13:17:20;12.10;99.90
4755;DHT22;2391;47.212;7.542;2023-04-16T13:19:46;12.00;99.90
4755;DHT22;2391;47.212;7.542;2023-04-16T13:22:11;12.00;99.90
4755;DHT22;2391;47.212;7.542;2023-04-16T13:24:37;12.10;99.90
4755;DHT22;2391;47.212;7.542;2023-04-16T13:27:04;12.10;99.90
4755;DHT22;2391;47.212;7.542;2023-04-16T13:29:30;12.20;99.90
4755;DHT22;2391;47.212;7.542;2023-04-16T13:31:56;12.20;99.90
4755;DHT22;2391;47.212;7.542;2023-04-16T13:34:22;12.20;99.90
4755;DHT22;2391;47.212;7.542;2023-04-16T13:37:21;12.00;99.90
4755;DHT22;2391;47.212;7.542;2023-04-16T13:42:56;12.00;99.90
4755;DHT22;2391;47.212;7.542;2023-04-16T13:45:21;12.40;99.90
4755;DHT22;2391;47.212;7.542;2023-04-16T13:47:47;12.70;99.40
4755;DHT22;2391;47.212;7.542;2023-04-16T13:50:13;13.00;99.00
4755;DHT22;2391;47.212;7.542;2023-04-16T13:52:39;13.10;99.20
4755;DHT22;2391;47.212;7.542;2023-04-16T13:55:05;13.10;98.80
4755;DHT22;2391;47.212;7.542;2023-04-16T13:57:31;13.00;98.60
4755;DHT22;2391;47.212;7.542;2023-04-16T13:59:57;12.80;98.60
4755;DHT22;2391;47.212;7.542;2023-04-16T14:02:22;12.80;98.90
4755;DHT22;2391;47.212;7.542;2023-04-16T14:04:50;12.60;99.40
4755;DHT22;2391;47.212;7.542;2023-04-16T14:07:16;12.50;99.70
4755;DHT22;2391;47.212;7.542;2023-04-16T14:09:41;12.50;99.90
4755;DHT22;2391;47.212;7.542;2023-04-16T14:12:07;12.50;99.90
4755;DHT22;2391;47.212;7.542;2023-04-16T14:14:33;12.60;99.90
4755;DHT22;2391;47.212;7.542;2023-04-16T14:17:00;12.60;99.90
4755;DHT22;2391;47.212;7.542;2023-04-16T14:19:29;12.70;99.90
4755;DHT22;2391;47.212;7.542;2023-04-16T14:21:55;12.80;99.90
4755;DHT22;2391;47.212;7.542;2023-04-16T14:24:21;12.70;99.90
4755;DHT22;2391;47.212;7.542;2023-04-16T14:26:46;12.70;99.90
4755;DHT22;2391;47.212;7.542;2023-04-16T14:29:12;12.50;99.90
4755;DHT22;2391;47.212;7.542;2023-04-16T14:31:38;12.50;99.90
4755;DHT22;2391;47.212;7.542;2023-04-16T14:34:03;12.40;99.90
4755;DHT22;2391;47.212;7.542;2023-04-16T14:36:29;12.30;99.90
4755;DHT22;2391;47.212;7.542;2023-04-16T14:38:55;12.20;99.90
4755;DHT22;2391;47.212;7.542;2023-04-16T14:41:21;12.00;99.90
4755;DHT22;2391;47.212;7.542;2023-04-16T14:43:47;11.80;99.90
4755;DHT22;2391;47.212;7.542;2023-04-16T14:46:12;11.70;99.90
4755;DHT22;2391;47.212;7.542;2023-04-16T14:48:40;11.80;99.70
4755;DHT22;2391;47.212;7.542;2023-04-16T14:51:06;11.90;99.30
4755;DHT22;2391;47.212;7.542;2023-04-16T14:53:31;12.00;99.40
4755;DHT22;2391;47.212;7.542;2023-04-16T14:55:58;12.10;99.40
4755;DHT22;2391;47.212;7.542;2023-04-16T14:58:24;12.20;99.20
4755;DHT22;2391;47.212;7.542;2023-04-16T15:00:50;12.30;99.10
4755;DHT22;2391;47.212;7.542;2023-04-16T15:03:16;12.30;98.90
4755;DHT22;2391;47.212;7.542;2023-04-16T15:05:42;12.20;98.80
4755;DHT22;2391;47.212;7.542;2023-04-16T15:08:08;12.30;98.90
4755;DHT22;2391;47.212;7.542;2023-04-16T15:10:34;12.30;98.80
4755;DHT22;2391;47.212;7.542;2023-04-16T15:12:59;12.40;98.60
4755;DHT22;2391;47.212;7.542;2023-04-16T15:15:25;12.30;98.50
4755;DHT22;2391;47.212;7.542;2023-04-16T15:17:51;12.30;98.70
4755;DHT22;2391;47.212;7.542;2023-04-16T15:20:17;12.30;98.80
4755;DHT22;2391;47.212;7.542;2023-04-16T15:22:42;12.30;98.90
4755;DHT22;2391;47.212;7.542;2023-04-16T15:25:08;12.40;99.00
4755;DHT22;2391;47.212;7.542;2023-04-16T15:27:34;12.40;98.80
4755;DHT22;2391;47.212;7.542;2023-04-16T15:30:07;12.40;98.60
4755;DHT22;2391;47.212;7.542;2023-04-16T15:32:33;12.50;98.90
4755;DHT22;2391;47.212;7.542;2023-04-16T15:35:14;12.60;98.60
4755;DHT22;2391;47.212;7.542;2023-04-16T15:37:40;12.60;98.60
4755;DHT22;2391;47.212;7.542;2023-04-16T15:40:06;12.70;98.50
4755;DHT22;2391;47.212;7.542;2023-04-16T15:42:39;12.70;98.60
4755;DHT22;2391;47.212;7.542;2023-04-16T15:45:06;12.80;98.60
4755;DHT22;2391;47.212;7.542;2023-04-16T15:47:32;12.80;98.50
4755;DHT22;2391;47.212;7.542;2023-04-16T15:49:58;12.90;98.40
4755;DHT22;2391;47.212;7.542;2023-04-16T15:52:24;12.90;98.30
4755;DHT22;2391;47.212;7.542;2023-04-16T15:54:49;12.90;98.20
4755;DHT22;2391;47.212;7.542;2023-04-16T15:57:15;12.90;98.20
4755;DHT22;2391;47.212;7.542;2023-04-16T15:59:41;12.80;98.10
4755;DHT22;2391;47.212;7.542;2023-04-16T16:02:07;12.60;97.80
4755;DHT22;2391;47.212;7.542;2023-04-16T16:04:32;12.30;97.10
4755;DHT22;2391;47.212;7.542;2023-04-16T16:06:58;12.30;97.60
4755;DHT22;2391;47.212;7.542;2023-04-16T16:09:24;12.30;97.80
4755;DHT22;2391;47.212;7.542;2023-04-16T16:11:52;12.30;98.00
4755;DHT22;2391;47.212;7.542;2023-04-16T16:14:22;12.40;98.20
4755;DHT22;2391;47.212;7.542;2023-04-16T16:16:48;12.50;98.20
4755;DHT22;2391;47.212;7.542;2023-04-16T16:19:23;12.60;98.30
4755;DHT22;2391;47.212;7.542;2023-04-16T16:21:49;12.60;98.30
4755;DHT22;2391;47.212;7.542;2023-04-16T16:24:14;12.80;98.10
4755;DHT22;2391;47.212;7.542;2023-04-16T16:26:42;12.80;98.00
4755;DHT22;2391;47.212;7.542;2023-04-16T16:29:13;12.90;98.00
4755;DHT22;2391;47.212;7.542;2023-04-16T16:31:39;13.00;98.00
4755;DHT22;2391;47.212;7.542;2023-04-16T16:34:05;13.00;97.70
4755;DHT22;2391;47.212;7.542;2023-04-16T16:36:31;13.10;97.70
4755;DHT22;2391;47.212;7.542;2023-04-16T16:38:58;13.10;97.70
4755;DHT22;2391;47.212;7.542;2023-04-16T16:41:24;13.10;97.50
4755;DHT22;2391;47.212;7.542;2023-04-16T16:43:50;13.00;97.40
4755;DHT22;2391;47.212;7.542;2023-04-16T16:46:17;12.90;96.80
4755;DHT22;2391;47.212;7.542;2023-04-16T16:48:43;12.80;96.80
4755;DHT22;2391;47.212;7.542;2023-04-16T16:51:09;12.70;96.70
4755;DHT22;2391;47.212;7.542;2023-04-16T16:53:35;12.60;97.00
4755;DHT22;2391;47.212;7.542;2023-04-16T16:56:01;12.60;97.30
4755;DHT22;2391;47.212;7.542;2023-04-16T16:58:27;12.60;97.50